Terminal Aerodrome Forecast
Issued by NWS

Home | Current Version | Previous Version | Text Only | Print | Product List | Glossary On
Versions: 1 2 3 4 5 6 7 8 9 10 11 12 13 14
000
FTUS45 KRIW 281700
TAFJAC
TAF
KJAC 281731Z 2818/0118 02009KT P6SM VCSH SCT020 BKN026
     FM010300 36006KT P6SM BKN040
     FM010600 36006KT P6SM VCFG SCT010 BKN040
      AMD LTD TO CLD VIS AND WIND=

USA.gov is the U.S. government's official web portal to all federal, state and local government web resources and services.